createdAt,value
2019-05-30T00:01:45.557Z,2.70
2019-05-30T00:04:13.993Z,1.97
2019-05-30T00:06:42.420Z,2.50
2019-05-30T00:09:10.834Z,3.37
2019-05-30T00:11:39.329Z,3.80
2019-05-30T00:14:07.754Z,3.70
2019-05-30T00:16:36.194Z,5.93
2019-05-30T00:19:05.066Z,3.07
2019-05-30T00:21:33.600Z,4.17
2019-05-30T00:24:02.116Z,1.30
2019-05-30T00:26:30.521Z,2.10
2019-05-30T00:29:00.065Z,5.13
2019-05-30T00:31:28.760Z,1.43
2019-05-30T00:33:57.501Z,3.57
2019-05-30T00:36:26.031Z,5.33
2019-05-30T00:38:55.580Z,2.30
2019-05-30T00:41:24.049Z,1.77
2019-05-30T00:43:52.478Z,1.53
2019-05-30T00:46:20.911Z,4.40
2019-05-30T00:48:49.345Z,2.03
2019-05-30T00:51:17.763Z,7.23
2019-05-30T00:53:46.180Z,2.27
2019-05-30T00:56:14.612Z,2.33
2019-05-30T00:58:43.033Z,1.73
2019-05-30T01:01:12.910Z,1.70
2019-05-30T01:03:41.467Z,2.50
2019-05-30T01:06:09.891Z,3.20
2019-05-30T01:08:38.336Z,1.70
2019-05-30T01:11:07.360Z,3.23
2019-05-30T01:13:35.977Z,3.40
2019-05-30T01:16:05.522Z,1.00
2019-05-30T01:18:34.036Z,1.23
2019-05-30T01:21:03.280Z,2.33
2019-05-30T01:23:31.729Z,3.03
2019-05-30T01:26:01.275Z,1.10
2019-05-30T01:28:29.864Z,1.30
2019-05-30T01:31:03.018Z,1.40
2019-05-30T01:33:28.436Z,0.93
2019-05-30T01:35:57.782Z,1.50
2019-05-30T01:38:26.281Z,2.50
2019-05-30T01:40:54.720Z,2.40
2019-05-30T01:43:24.081Z,1.33
2019-05-30T01:45:52.504Z,1.47
2019-05-30T01:48:20.978Z,3.20
2019-05-30T01:50:49.441Z,1.60
2019-05-30T01:53:17.860Z,2.53
2019-05-30T01:55:48.793Z,2.00
2019-05-30T01:58:16.440Z,1.43
2019-05-30T02:00:44.861Z,1.30
2019-05-30T02:03:13.304Z,2.13
2019-05-30T02:05:41.723Z,1.47
2019-05-30T02:08:10.348Z,1.20
2019-05-30T02:10:38.786Z,1.23
2019-05-30T02:13:07.522Z,1.10
2019-05-30T02:15:36.011Z,1.37
2019-05-30T02:18:05.629Z,1.10
2019-05-30T02:20:34.204Z,1.33
2019-05-30T02:23:05.084Z,1.80
2019-05-30T02:25:32.791Z,3.43
2019-05-30T02:28:02.062Z,2.63
2019-05-30T02:30:30.596Z,1.50
2019-05-30T02:33:00.541Z,1.73
2019-05-30T02:35:29.237Z,2.40
2019-05-30T02:37:57.753Z,1.87
2019-05-30T02:40:26.433Z,1.60
2019-05-30T02:42:54.849Z,1.40
2019-05-30T02:45:23.348Z,1.40
2019-05-30T02:47:51.780Z,1.40
2019-05-30T02:50:20.533Z,1.30
2019-05-30T02:52:49.016Z,1.67
2019-05-30T02:55:17.561Z,1.93
2019-05-30T02:57:45.981Z,3.37
2019-05-30T03:00:17.771Z,2.10
2019-05-30T03:02:46.649Z,1.70
2019-05-30T03:05:15.435Z,1.30
2019-05-30T03:07:44.156Z,1.43
2019-05-30T03:10:15.261Z,1.70
2019-05-30T03:12:43.412Z,1.83
2019-05-30T03:15:14.894Z,1.93
2019-05-30T03:17:43.720Z,1.80
2019-05-30T03:20:21.952Z,1.93
2019-05-30T03:22:42.706Z,1.50
2019-05-30T03:25:15.319Z,1.80
2019-05-30T03:27:41.416Z,1.87
2019-05-30T03:30:22.157Z,2.00
2019-05-30T03:35:24.038Z,2.20
2019-05-30T03:37:41.289Z,2.17
2019-05-30T03:40:09.981Z,1.83
2019-05-30T03:42:38.502Z,1.87
2019-05-30T03:45:13.332Z,1.87
2019-05-30T03:47:43.212Z,2.00
2019-05-30T03:50:17.088Z,4.07
2019-05-30T03:52:43.685Z,2.33
2019-05-30T03:55:14.407Z,2.00
2019-05-30T03:57:51.673Z,1.87
2019-05-30T04:00:45.640Z,1.77
2019-05-30T04:03:19.007Z,1.70
2019-05-30T04:05:50.434Z,1.90
2019-05-30T04:08:19.779Z,2.20
2019-05-30T04:10:51.369Z,2.57
2019-05-30T04:13:25.942Z,2.57
2019-05-30T04:15:54.375Z,2.50
2019-05-30T04:18:22.797Z,2.73
2019-05-30T04:20:51.239Z,2.37
2019-05-30T04:23:19.718Z,3.27
2019-05-30T04:25:48.168Z,2.53
2019-05-30T04:28:18.583Z,2.17
2019-05-30T04:30:46.740Z,2.47
2019-05-30T04:33:25.715Z,2.50
2019-05-30T04:35:45.329Z,2.30
2019-05-30T04:38:14.649Z,2.53
2019-05-30T04:40:43.539Z,2.20
2019-05-30T04:43:13.349Z,2.70
2019-05-30T04:45:42.753Z,2.30
2019-05-30T04:48:11.695Z,2.40
2019-05-30T04:50:40.247Z,2.77
2019-05-30T04:53:10.148Z,2.40
2019-05-30T04:55:38.816Z,3.20
2019-05-30T04:58:07.496Z,2.90
2019-05-30T05:00:35.988Z,2.70
2019-05-30T05:03:05.585Z,3.63
2019-05-30T05:05:34.017Z,3.10
2019-05-30T05:08:02.436Z,3.10
2019-05-30T05:10:31.453Z,3.90
2019-05-30T05:12:59.873Z,3.47
2019-05-30T05:15:28.292Z,3.50
2019-05-30T05:17:56.731Z,3.67
2019-05-30T05:20:25.149Z,3.50
2019-05-30T05:22:53.596Z,3.60
2019-05-30T05:25:22.015Z,3.73
2019-05-30T05:27:50.436Z,3.90
2019-05-30T05:30:20.131Z,4.70
2019-05-30T05:32:48.668Z,3.43
2019-05-30T05:35:18.482Z,3.80
2019-05-30T05:37:47.157Z,3.60
2019-05-30T05:40:16.045Z,5.00
2019-05-30T05:42:44.552Z,3.73
2019-05-30T05:45:13.308Z,4.23
2019-05-30T05:47:41.756Z,3.10
2019-05-30T05:50:10.360Z,3.67
2019-05-30T05:52:39.530Z,3.60
2019-05-30T05:55:08.323Z,3.63
2019-05-30T05:57:36.735Z,4.27
2019-05-30T06:00:06.796Z,3.80
2019-05-30T06:02:35.224Z,4.07
2019-05-30T06:05:06.831Z,3.90
2019-05-30T06:07:35.290Z,4.40
2019-05-30T06:10:07.172Z,5.20
2019-05-30T06:12:35.600Z,3.93
2019-05-30T06:15:06.053Z,3.90
2019-05-30T06:17:34.651Z,3.70
2019-05-30T06:20:04.428Z,3.97
2019-05-30T06:22:32.847Z,4.00
2019-05-30T06:25:02.325Z,3.80
2019-05-30T06:27:30.955Z,3.70
2019-05-30T06:29:59.431Z,3.97
2019-05-30T06:32:28.877Z,4.40
2019-05-30T06:34:57.431Z,3.90
2019-05-30T06:37:25.856Z,4.00
2019-05-30T06:39:54.292Z,3.70
2019-05-30T06:42:23.656Z,3.40
2019-05-30T06:44:52.212Z,3.70
2019-05-30T06:47:20.633Z,4.20
2019-05-30T06:49:49.062Z,3.40
2019-05-30T06:52:17.499Z,3.97
2019-05-30T06:54:45.916Z,4.07
2019-05-30T06:57:14.360Z,4.03
2019-05-30T06:59:42.808Z,3.90
2019-05-30T07:02:11.232Z,4.30
2019-05-30T07:04:50.990Z,3.67
2019-05-30T07:07:09.894Z,4.20
2019-05-30T07:09:38.521Z,3.83
2019-05-30T07:12:06.940Z,4.20
2019-05-30T07:14:35.372Z,4.40
2019-05-30T07:17:03.817Z,3.77
2019-05-30T07:19:33.622Z,4.00
2019-05-30T07:22:02.182Z,4.50
2019-05-30T07:24:31.881Z,4.00
2019-05-30T07:27:00.397Z,4.50
2019-05-30T07:29:29.921Z,4.80
2019-05-30T07:31:58.453Z,5.37
2019-05-30T07:34:28.023Z,5.13
2019-05-30T07:36:56.568Z,5.93
2019-05-30T07:39:27.255Z,5.23
2019-05-30T07:42:05.638Z,7.27
2019-05-30T07:44:26.582Z,10.13
2019-05-30T07:46:55.076Z,6.50
2019-05-30T07:49:23.750Z,7.40
2019-05-30T07:51:52.184Z,10.57
2019-05-30T07:54:20.669Z,5.77
2019-05-30T07:56:49.109Z,5.60
2019-05-30T07:59:17.546Z,7.23
2019-05-30T08:01:45.994Z,11.77
2019-05-30T08:04:14.431Z,7.33
2019-05-30T08:06:42.864Z,5.63
2019-05-30T08:09:11.319Z,7.70
2019-05-30T08:11:39.749Z,6.03
2019-05-30T08:14:09.461Z,7.03
2019-05-30T08:16:37.902Z,5.30
2019-05-30T08:19:06.351Z,5.97
2019-05-30T08:21:36.192Z,5.57
2019-05-30T08:24:04.749Z,6.17
2019-05-30T08:26:34.218Z,6.90
2019-05-30T08:29:02.764Z,5.37
2019-05-30T08:31:32.417Z,5.13
2019-05-30T08:34:00.975Z,5.67
2019-05-30T08:36:32.611Z,7.10
2019-05-30T08:39:01.279Z,22.83
2019-05-30T08:41:29.761Z,16.93
2019-05-30T08:43:58.191Z,16.07
2019-05-30T08:46:26.632Z,21.67
2019-05-30T08:48:55.148Z,14.47
2019-05-30T08:51:23.592Z,14.23
2019-05-30T08:53:52.020Z,20.27
2019-05-30T08:56:20.432Z,18.42
2019-05-30T08:58:49.121Z,18.63
2019-05-30T09:01:17.551Z,12.80
2019-05-30T09:03:46.327Z,17.13
2019-05-30T09:06:14.806Z,13.40
2019-05-30T09:08:44.256Z,12.40
2019-05-30T09:11:12.771Z,17.50
2019-05-30T09:13:42.528Z,8.10
2019-05-30T09:16:11.077Z,9.28
2019-05-30T09:18:40.266Z,15.00
2019-05-30T09:21:09.683Z,14.73
2019-05-30T09:23:39.002Z,7.43
2019-05-30T09:26:08.302Z,9.13
2019-05-30T09:28:37.758Z,11.57
2019-05-30T09:31:06.889Z,13.17
2019-05-30T09:33:35.308Z,13.57
2019-05-30T09:36:12.568Z,12.43
2019-05-30T09:38:33.955Z,11.93
2019-05-30T09:41:02.488Z,13.40
2019-05-30T09:43:30.899Z,9.13
2019-05-30T09:45:59.341Z,12.30
2019-05-30T09:48:27.764Z,11.70
2019-05-30T09:50:56.209Z,17.87
2019-05-30T09:53:24.637Z,20.17
2019-05-30T09:55:53.162Z,10.57
2019-05-30T09:58:21.633Z,18.43
2019-05-30T10:00:50.415Z,12.07
2019-05-30T10:03:18.932Z,9.50
2019-05-30T10:05:48.599Z,11.50
2019-05-30T10:08:17.187Z,10.43
2019-05-30T10:10:45.764Z,11.00
2019-05-30T10:13:15.805Z,8.57
2019-05-30T10:15:45.712Z,7.97
2019-05-30T10:18:14.378Z,10.13
2019-05-30T10:20:42.799Z,7.07
2019-05-30T10:23:11.216Z,7.60
2019-05-30T10:25:39.652Z,9.43
2019-05-30T10:28:08.077Z,6.60
2019-05-30T10:30:36.512Z,11.20
2019-05-30T10:33:04.929Z,9.47
2019-05-30T10:35:33.348Z,15.83
2019-05-30T10:38:01.780Z,11.53
2019-05-30T10:40:32.190Z,11.10
2019-05-30T10:43:00.425Z,8.67
2019-05-30T10:45:29.880Z,15.43
2019-05-30T10:47:58.296Z,12.50
2019-05-30T10:50:26.795Z,15.77
2019-05-30T10:52:55.644Z,17.63
2019-05-30T10:55:25.452Z,9.87
2019-05-30T10:57:57.544Z,14.03
2019-05-30T11:00:41.787Z,14.70
2019-05-30T11:03:10.294Z,15.47
2019-05-30T11:05:38.711Z,10.47
2019-05-30T11:08:10.221Z,15.27
2019-05-30T11:10:40.859Z,16.53
2019-05-30T11:13:15.367Z,13.03
2019-05-30T11:15:44.279Z,18.73
2019-05-30T11:18:12.937Z,8.87
2019-05-30T11:20:41.545Z,15.10
2019-05-30T11:23:09.961Z,10.40
2019-05-30T11:25:38.384Z,10.53
2019-05-30T11:28:07.763Z,10.03
2019-05-30T11:30:36.184Z,12.93
2019-05-30T11:33:05.257Z,10.53
2019-05-30T11:35:33.762Z,10.27
2019-05-30T11:38:02.254Z,9.57
2019-05-30T11:40:30.814Z,10.23
2019-05-30T11:42:59.931Z,9.67
2019-05-30T11:45:28.529Z,9.90
2019-05-30T11:47:58.069Z,9.50
2019-05-30T11:50:27.153Z,7.53
2019-05-30T11:52:55.878Z,8.20
2019-05-30T11:55:24.520Z,9.70
2019-05-30T11:57:54.544Z,9.67
2019-05-30T12:00:23.244Z,7.90
2019-05-30T12:02:52.214Z,10.40
2019-05-30T12:05:20.992Z,10.53
2019-05-30T12:07:50.608Z,7.30
2019-05-30T12:10:19.652Z,9.97
2019-05-30T12:12:48.336Z,8.37
2019-05-30T12:15:17.352Z,13.40
2019-05-30T12:17:45.845Z,29.37
2019-05-30T12:20:14.798Z,9.10
2019-05-30T12:22:43.229Z,8.03
2019-05-30T12:25:11.910Z,13.27
2019-05-30T12:27:40.620Z,19.33
2019-05-30T12:30:09.696Z,31.00
2019-05-30T12:32:38.120Z,11.27
2019-05-30T12:35:08.503Z,26.83
2019-05-30T12:37:53.571Z,8.80
2019-05-30T12:40:08.255Z,7.67
2019-05-30T12:42:36.722Z,11.20
2019-05-30T12:45:07.956Z,9.60
2019-05-30T12:47:36.451Z,14.23
2019-05-30T12:50:09.984Z,12.80
2019-05-30T12:52:38.420Z,9.03
2019-05-30T12:55:08.530Z,10.57
2019-05-30T12:57:37.016Z,9.20
2019-05-30T13:00:15.566Z,7.73
2019-05-30T13:02:37.913Z,9.17
2019-05-30T13:05:07.481Z,11.47
2019-05-30T13:07:35.615Z,10.10
2019-05-30T13:10:09.832Z,8.07
2019-05-30T13:12:37.975Z,11.00
2019-05-30T13:15:07.040Z,12.33
2019-05-30T13:17:35.423Z,25.20
2019-05-30T13:20:05.134Z,12.80
2019-05-30T13:22:33.343Z,11.33
2019-05-30T13:25:01.896Z,9.50
2019-05-30T13:27:30.115Z,9.93
2019-05-30T13:29:58.260Z,21.37
2019-05-30T13:32:26.407Z,29.40
2019-05-30T13:34:54.552Z,11.97
2019-05-30T13:37:22.706Z,11.43
2019-05-30T13:39:50.856Z,14.17
2019-05-30T13:42:19.016Z,14.50
2019-05-30T13:44:47.170Z,16.77
2019-05-30T13:47:15.329Z,13.50
2019-05-30T13:49:43.455Z,8.20
2019-05-30T13:52:11.612Z,16.17
2019-05-30T13:54:39.756Z,15.73
2019-05-30T13:57:07.954Z,10.27
2019-05-30T13:59:36.130Z,13.20
2019-05-30T14:02:04.447Z,9.07
2019-05-30T14:04:32.582Z,9.93
2019-05-30T14:07:00.737Z,9.07
2019-05-30T14:09:28.884Z,13.40
2019-05-30T14:11:57.032Z,8.83
2019-05-30T14:14:25.180Z,8.48
2019-05-30T14:16:53.337Z,10.90
2019-05-30T14:19:24.537Z,8.13
2019-05-30T14:21:51.350Z,12.57
2019-05-30T14:24:19.494Z,8.45
2019-05-30T14:26:47.647Z,9.13
2019-05-30T14:29:15.783Z,9.07
2019-05-30T14:31:43.947Z,7.13
2019-05-30T14:34:12.293Z,11.03
2019-05-30T14:36:40.517Z,9.80
2019-05-30T14:39:09.057Z,11.50
2019-05-30T14:41:37.283Z,8.10
2019-05-30T14:44:05.424Z,16.43
2019-05-30T14:46:33.576Z,7.97
2019-05-30T14:49:01.719Z,5.90
2019-05-30T14:51:29.901Z,12.27
2019-05-30T14:53:58.043Z,7.93
2019-05-30T14:56:26.196Z,6.13
2019-05-30T14:58:54.340Z,5.40
2019-05-30T15:01:22.489Z,5.93
2019-05-30T15:03:50.625Z,4.40
2019-05-30T15:06:18.811Z,5.03
2019-05-30T15:08:47.016Z,5.20
2019-05-30T15:11:15.789Z,5.50
2019-05-30T15:13:44.032Z,6.77
2019-05-30T15:16:13.018Z,9.33
2019-05-30T15:18:41.285Z,9.13
2019-05-30T15:21:10.308Z,6.00
2019-05-30T15:23:38.552Z,6.60
2019-05-30T15:26:07.662Z,7.90
2019-05-30T15:28:36.017Z,6.63
2019-05-30T15:31:04.161Z,7.90
2019-05-30T15:33:32.312Z,4.20
2019-05-30T15:36:00.464Z,12.20
2019-05-30T15:38:28.611Z,5.60
2019-05-30T15:40:56.788Z,6.10
2019-05-30T15:43:24.924Z,5.27
2019-05-30T15:45:53.071Z,5.70
2019-05-30T15:48:21.211Z,5.23
2019-05-30T15:50:49.367Z,8.73
2019-05-30T15:53:17.748Z,6.92
2019-05-30T15:55:45.903Z,5.00
2019-05-30T15:58:14.044Z,3.93
2019-05-30T16:00:42.187Z,5.43
2019-05-30T16:03:10.495Z,14.53
2019-05-30T16:05:38.691Z,7.80
2019-05-30T16:08:06.880Z,5.35
2019-05-30T16:10:36.899Z,7.83
2019-05-30T16:13:04.931Z,4.67
2019-05-30T16:15:33.139Z,5.87
2019-05-30T16:18:01.327Z,10.00
2019-05-30T16:20:29.491Z,10.00
2019-05-30T16:22:57.729Z,5.97
2019-05-30T16:25:25.940Z,8.13
2019-05-30T16:27:54.115Z,6.43
2019-05-30T16:30:25.431Z,9.10
2019-05-30T16:32:52.232Z,8.43
2019-05-30T16:35:20.368Z,7.47
2019-05-30T16:37:48.516Z,7.03
2019-05-30T16:40:16.741Z,6.33
2019-05-30T16:42:44.898Z,4.60
2019-05-30T16:45:17.411Z,7.10
2019-05-30T16:47:42.996Z,4.00
2019-05-30T16:50:12.418Z,5.00
2019-05-30T16:52:40.686Z,4.70
2019-05-30T16:55:09.254Z,5.97
2019-05-30T16:57:37.410Z,6.77
2019-05-30T17:00:09.129Z,5.17
2019-05-30T17:02:37.253Z,7.05
2019-05-30T17:05:06.367Z,7.45
2019-05-30T17:07:34.476Z,11.35
2019-05-30T17:10:02.654Z,6.85
2019-05-30T17:12:30.760Z,5.85
2019-05-30T17:14:58.910Z,3.35
2019-05-30T17:17:27.005Z,6.30
2019-05-30T17:19:55.099Z,6.20
2019-05-30T17:22:23.200Z,5.22
2019-05-30T17:24:54.290Z,4.63
2019-05-30T17:27:21.105Z,5.30
2019-05-30T17:29:49.202Z,10.40
2019-05-30T17:32:17.806Z,5.73
2019-05-30T17:34:45.975Z,7.80
2019-05-30T17:37:14.063Z,5.53
2019-05-30T17:39:42.160Z,7.60
2019-05-30T17:42:10.251Z,5.80
2019-05-30T17:44:38.343Z,8.40
2019-05-30T17:47:06.442Z,9.10
2019-05-30T17:49:34.543Z,13.60
2019-05-30T17:52:02.643Z,11.03
2019-05-30T17:54:30.732Z,7.43
2019-05-30T17:56:58.826Z,10.30
2019-05-30T17:59:26.923Z,10.20
2019-05-30T18:01:55.023Z,10.13
2019-05-30T18:04:24.353Z,16.50
2019-05-30T18:06:52.579Z,9.00
2019-05-30T18:09:20.990Z,7.63
2019-05-30T18:11:52.191Z,5.47
2019-05-30T18:14:19.109Z,5.27
2019-05-30T18:16:47.255Z,5.57
2019-05-30T18:19:15.427Z,6.00
2019-05-30T18:21:43.639Z,5.97
2019-05-30T18:24:11.787Z,11.57
2019-05-30T18:26:40.136Z,8.05
2019-05-30T18:29:08.220Z,6.70
2019-05-30T18:31:36.316Z,5.93
2019-05-30T18:34:04.534Z,11.30
2019-05-30T18:36:32.768Z,7.17
2019-05-30T18:39:00.964Z,6.50
2019-05-30T18:41:29.135Z,7.33
2019-05-30T18:43:57.264Z,11.53
2019-05-30T18:46:25.415Z,9.20
2019-05-30T18:48:53.556Z,4.73
2019-05-30T18:51:21.714Z,4.37
2019-05-30T18:53:49.857Z,6.63
2019-05-30T18:56:18.009Z,4.73
2019-05-30T18:58:46.393Z,5.00
2019-05-30T19:01:14.552Z,6.77
2019-05-30T19:03:42.685Z,5.77
2019-05-30T19:06:10.832Z,6.67
2019-05-30T19:08:38.982Z,6.67
2019-05-30T19:11:07.120Z,5.97
2019-05-30T19:13:35.268Z,7.30
2019-05-30T19:16:03.412Z,6.83
2019-05-30T19:18:31.650Z,13.67
2019-05-30T19:20:59.781Z,9.03
2019-05-30T19:23:28.027Z,15.37
2019-05-30T19:25:56.153Z,12.40
2019-05-30T19:28:24.244Z,8.80
2019-05-30T19:30:52.350Z,12.80
2019-05-30T19:33:20.868Z,6.90
2019-05-30T19:35:49.790Z,7.87
2019-05-30T19:38:17.979Z,9.03
2019-05-30T19:40:46.196Z,9.15
2019-05-30T19:43:14.291Z,9.80
2019-05-30T19:45:42.389Z,11.37
2019-05-30T19:48:10.493Z,12.20
2019-05-30T19:50:38.883Z,5.80
2019-05-30T19:53:07.055Z,9.97
2019-05-30T19:55:35.335Z,11.87
2019-05-30T19:58:03.514Z,8.23
2019-05-30T20:00:31.997Z,7.30
2019-05-30T20:03:00.183Z,8.70
2019-05-30T20:05:28.339Z,7.77
2019-05-30T20:07:56.491Z,6.00
2019-05-30T20:10:24.635Z,8.67
2019-05-30T20:12:52.788Z,7.93
2019-05-30T20:15:20.931Z,6.13
2019-05-30T20:17:49.084Z,12.63
2019-05-30T20:20:17.295Z,6.60
2019-05-30T20:22:45.471Z,4.90
2019-05-30T20:25:14.234Z,8.70
2019-05-30T20:27:43.097Z,6.80
2019-05-30T20:30:12.943Z,6.13
2019-05-30T20:32:41.122Z,11.53
2019-05-30T20:35:09.394Z,11.40
2019-05-30T20:37:38.647Z,16.33
2019-05-30T20:40:07.648Z,10.53
2019-05-30T20:42:36.782Z,10.03
2019-05-30T20:45:09.595Z,8.50
2019-05-30T20:47:37.538Z,10.93
2019-05-30T20:50:06.583Z,6.50
2019-05-30T20:52:38.682Z,8.33
2019-05-30T20:55:08.251Z,6.67
2019-05-30T20:57:36.407Z,6.80
2019-05-30T21:00:45.778Z,6.77
2019-05-30T21:03:14.064Z,8.50
2019-05-30T21:05:44.090Z,3.87
2019-05-30T21:08:12.583Z,4.77
2019-05-30T21:10:43.245Z,8.10
2019-05-30T21:13:11.541Z,4.27
2019-05-30T21:15:40.076Z,24.23
2019-05-30T21:18:08.283Z,10.90
2019-05-30T21:20:36.436Z,6.60
2019-05-30T21:23:04.595Z,14.87
2019-05-30T21:25:35.664Z,7.40
2019-05-30T21:28:02.644Z,8.90
2019-05-30T21:30:30.784Z,7.17
2019-05-30T21:32:58.966Z,7.07
2019-05-30T21:35:27.211Z,11.20
2019-05-30T21:37:55.405Z,11.03
2019-05-30T21:40:23.548Z,9.23
2019-05-30T21:43:05.221Z,6.90
2019-05-30T21:45:21.598Z,6.20
2019-05-30T21:47:49.735Z,6.50
2019-05-30T21:50:17.959Z,9.33
2019-05-30T21:52:46.387Z,5.13
2019-05-30T21:55:15.892Z,5.80
2019-05-30T21:57:44.054Z,5.13
2019-05-30T22:00:13.561Z,8.43
2019-05-30T22:02:44.482Z,8.73
2019-05-30T22:05:12.960Z,9.67
2019-05-30T22:07:41.099Z,6.73
2019-05-30T22:10:09.427Z,7.70
2019-05-30T22:12:37.657Z,7.07
2019-05-30T22:15:05.995Z,5.13
2019-05-30T22:17:34.147Z,5.27
2019-05-30T22:20:02.279Z,8.40
2019-05-30T22:22:30.433Z,11.50
2019-05-30T22:24:58.572Z,8.30
2019-05-30T22:27:26.728Z,4.90
2019-05-30T22:29:54.871Z,7.13
2019-05-30T22:32:23.118Z,9.00
2019-05-30T22:34:51.255Z,5.60
2019-05-30T22:37:19.395Z,7.57
2019-05-30T22:39:47.551Z,5.50
2019-05-30T22:42:15.692Z,3.77
2019-05-30T22:44:44.033Z,7.43
2019-05-30T22:47:12.264Z,4.03
2019-05-30T22:49:40.432Z,4.37
2019-05-30T22:52:08.585Z,4.17
2019-05-30T22:54:36.731Z,5.87
2019-05-30T22:57:04.934Z,4.33
2019-05-30T22:59:33.124Z,3.30
2019-05-30T23:02:01.272Z,6.03
2019-05-30T23:04:29.501Z,4.17
2019-05-30T23:06:57.648Z,6.53
2019-05-30T23:09:25.804Z,5.87
2019-05-30T23:11:53.977Z,8.43
2019-05-30T23:14:22.171Z,10.43
2019-05-30T23:16:50.560Z,13.10
2019-05-30T23:19:18.975Z,7.10
2019-05-30T23:21:47.384Z,4.30
2019-05-30T23:24:15.524Z,7.17
2019-05-30T23:26:43.932Z,5.10
2019-05-30T23:29:12.076Z,3.17
2019-05-30T23:31:40.255Z,4.80
2019-05-30T23:34:08.659Z,4.53
2019-05-30T23:36:36.802Z,4.17
2019-05-30T23:39:05.923Z,5.87
2019-05-30T23:41:34.068Z,6.30
2019-05-30T23:44:10.602Z,6.17
2019-05-30T23:46:32.176Z,4.80
2019-05-30T23:49:00.318Z,4.20
2019-05-30T23:51:28.471Z,3.30
2019-05-30T23:53:56.616Z,4.80
2019-05-30T23:56:24.777Z,3.57
2019-05-30T23:58:52.919Z,4.23
